Time;durP1;ratioP1;P1;durP2;ratioP2;P2;SDS_P1;SDS_P2;PMS_P1;PMS_P2;Temp;Humidity;BMP_temperature;BMP_pressure;BME280_temperature;BME280_humidity;BME280_pressure;Samples;Min_cycle;Max_cycle;Signal;HPM_P1;HPM_P2
2021/05/29 00:00:54;;;;;;;0.00;0.00;;;18.40;62.10;;;;;;5112132;28;20050;-67
2021/05/29 00:03:23;;;;;;;0.00;0.00;;;18.40;62.20;;;;;;5112005;28;20172;-67
2021/05/29 00:05:50;;;;;;;0.00;0.00;;;18.40;62.20;;;;;;5112356;28;20482;-67
2021/05/29 00:08:17;;;;;;;0.00;0.00;;;18.40;62.40;;;;;;5111548;28;20419;-67
2021/05/29 00:10:50;;;;;;;0.00;0.00;;;18.40;62.40;;;;;;5112217;28;20115;-67
2021/05/29 00:13:18;;;;;;;0.00;0.00;;;18.30;62.50;;;;;;5111867;28;20153;-67
2021/05/29 00:15:45;;;;;;;0.03;0.00;;;18.30;62.50;;;;;;5111133;28;20063;-67
2021/05/29 00:18:12;;;;;;;0.00;0.00;;;18.30;62.60;;;;;;5111278;28;20052;-67
2021/05/29 00:20:39;;;;;;;0.00;0.00;;;18.30;62.70;;;;;;5110470;27;20047;-67
2021/05/29 00:23:10;;;;;;;0.00;0.00;;;18.30;62.70;;;;;;5120174;27;20051;-67
2021/05/29 00:25:38;;;;;;;0.00;0.00;;;18.30;62.80;;;;;;5118456;28;20417;-67
2021/05/29 00:28:05;;;;;;;0.00;0.00;;;18.30;62.90;;;;;;5117887;28;20062;-67
2021/05/29 00:30:32;;;;;;;0.00;0.00;;;18.20;62.90;;;;;;5118095;28;20087;-67
2021/05/29 00:32:58;;;;;;;0.00;0.00;;;18.20;62.90;;;;;;5118663;28;20094;-67
2021/05/29 00:35:25;;;;;;;0.00;0.00;;;18.20;63.00;;;;;;5118607;28;20509;-67
2021/05/29 00:37:51;;;;;;;0.00;0.00;;;18.20;63.00;;;;;;5100085;28;20156;-67
2021/05/29 00:40:18;;;;;;;0.00;0.00;;;18.20;63.10;;;;;;5118382;28;20050;-67
2021/05/29 00:42:44;;;;;;;0.00;0.00;;;18.20;63.10;;;;;;5118474;28;20150;-67
2021/05/29 00:45:11;;;;;;;0.00;0.00;;;18.20;64.10;;;;;;5118090;28;20043;-67
2021/05/29 00:47:37;;;;;;;0.00;0.00;;;18.20;63.20;;;;;;5118093;28;20043;-67
2021/05/29 00:50:11;;;;;;;0.00;0.00;;;18.10;63.20;;;;;;5118882;28;20141;-67
2021/05/29 00:52:38;;;;;;;0.00;0.00;;;18.10;63.30;;;;;;5118406;28;20047;-67
2021/05/29 00:55:08;;;;;;;0.00;0.00;;;18.10;63.30;;;;;;5118545;28;20418;-67
2021/05/29 00:57:40;;;;;;;0.00;0.00;;;18.10;63.40;;;;;;5117885;28;20051;-67
2021/05/29 01:00:08;;;;;;;0.00;0.00;;;18.10;63.40;;;;;;5099902;28;20066;-67
2021/05/29 01:02:34;;;;;;;0.00;0.00;;;18.10;63.40;;;;;;5118270;28;20426;-67
2021/05/29 01:05:07;;;;;;;0.00;0.00;;;18.10;63.40;;;;;;5118337;28;20039;-67
2021/05/29 01:07:34;;;;;;;0.00;0.00;;;18.10;63.40;;;;;;5099412;28;20048;-67
2021/05/29 01:10:03;;;;;;;0.00;0.00;;;18.10;63.50;;;;;;5118304;28;20101;-67
2021/05/29 01:12:30;;;;;;;0.00;0.00;;;18.10;63.50;;;;;;5118046;28;20408;-67
2021/05/29 01:14:58;;;;;;;0.00;0.00;;;18.10;63.50;;;;;;5118177;28;20044;-67
2021/05/29 01:17:27;;;;;;;0.00;0.00;;;18.10;63.50;;;;;;5118521;28;20051;-67
2021/05/29 01:19:53;;;;;;;0.00;0.00;;;18.10;63.60;;;;;;5099406;28;20052;-67
2021/05/29 01:22:43;;;;;;;0.00;0.00;;;18.10;63.60;;;;;;5118114;28;20055;-67
2021/05/29 01:25:13;;;;;;;0.00;0.00;;;18.10;63.70;;;;;;5118311;28;20048;-67
2021/05/29 01:27:39;;;;;;;0.00;0.00;;;18.10;63.70;;;;;;5117850;28;20040;-67
2021/05/29 01:30:07;;;;;;;0.00;0.00;;;18.10;63.70;;;;;;5117889;28;20044;-67
2021/05/29 01:32:34;;;;;;;0.00;0.00;;;18.10;63.70;;;;;;5116749;28;20040;-67
2021/05/29 01:35:07;;;;;;;0.00;0.00;;;18.10;63.80;;;;;;5115175;28;20140;-67
2021/05/29 01:37:34;;;;;;;0.00;0.00;;;18.10;63.80;;;;;;5105705;28;20185;-67
2021/05/29 01:40:02;;;;;;;0.00;0.00;;;18.10;63.80;;;;;;5114707;28;20048;-67
2021/05/29 01:42:30;;;;;;;0.00;0.00;;;18.10;63.80;;;;;;5114464;28;20051;-67
2021/05/29 01:44:57;;;;;;;0.00;0.00;;;18.10;63.80;;;;;;5114654;28;20044;-67
2021/05/29 01:47:24;;;;;;;0.00;0.00;;;18.10;63.80;;;;;;5114347;28;20072;-66
2021/05/29 01:49:51;;;;;;;0.00;0.00;;;18.10;63.70;;;;;;5114759;28;20123;-67
2021/05/29 01:52:17;;;;;;;0.00;0.00;;;18.00;63.70;;;;;;5114300;28;20132;-67
2021/05/29 01:54:43;;;;;;;0.00;0.00;;;18.00;63.70;;;;;;5114663;28;20128;-67
2021/05/29 01:57:10;;;;;;;0.00;0.00;;;18.10;63.70;;;;;;5114152;28;20185;-67
2021/05/29 01:59:36;;;;;;;0.00;0.00;;;18.10;63.70;;;;;;5114471;28;20048;-67
2021/05/29 02:02:03;;;;;;;0.00;0.00;;;18.10;63.60;;;;;;5114478;28;20127;-67
2021/05/29 02:04:29;;;;;;;0.00;0.00;;;18.00;63.50;;;;;;5114182;28;20036;-67
2021/05/29 02:06:55;;;;;;;0.00;0.00;;;18.10;63.60;;;;;;5114031;28;20418;-67
2021/05/29 02:09:22;;;;;;;0.00;0.00;;;18.00;63.50;;;;;;5114227;28;20138;-67
2021/05/29 02:11:48;;;;;;;0.00;0.00;;;18.00;63.60;;;;;;5102783;28;20075;-67
2021/05/29 02:14:14;;;;;;;0.00;0.00;;;18.00;63.60;;;;;;5114103;28;20539;-67
2021/05/29 02:16:42;;;;;;;0.00;0.00;;;18.00;63.60;;;;;;5114073;28;20136;-67
2021/05/29 02:19:08;;;;;;;0.00;0.00;;;18.00;63.60;;;;;;5113993;28;20047;-67
2021/05/29 02:21:35;;;;;;;0.00;0.00;;;18.00;63.70;;;;;;5113621;28;20442;-67
2021/05/29 02:24:01;;;;;;;0.00;0.00;;;18.00;63.80;;;;;;5113995;28;20089;-67
2021/05/29 02:26:27;;;;;;;0.00;0.00;;;17.90;63.70;;;;;;5112987;28;20147;-67
2021/05/29 02:28:54;;;;;;;0.00;0.00;;;17.90;63.80;;;;;;5114158;28;20043;-67
2021/05/29 02:31:22;;;;;;;0.00;0.00;;;17.90;63.80;;;;;;5113908;28;20131;-67
2021/05/29 02:33:49;;;;;;;0.00;0.00;;;17.90;63.90;;;;;;5113715;28;20051;-67
2021/05/29 02:36:15;;;;;;;0.15;0.00;;;17.90;63.90;;;;;;5113974;28;20537;-67
2021/05/29 02:38:42;;;;;;;0.00;0.00;;;17.90;63.90;;;;;;5106914;28;20093;-67
2021/05/29 02:41:11;;;;;;;0.00;0.00;;;17.90;63.90;;;;;;5113446;28;20059;-67
2021/05/29 02:43:39;;;;;;;0.00;0.00;;;17.90;64.00;;;;;;5113588;28;20048;-67
2021/05/29 02:46:06;;;;;;;0.00;0.00;;;17.90;63.90;;;;;;5110824;28;20080;-67
2021/05/29 02:48:33;;;;;;;0.00;0.00;;;17.90;63.90;;;;;;5106358;28;20153;-67
2021/05/29 02:51:00;;;;;;;0.00;0.00;;;17.90;63.90;;;;;;5113318;28;20389;-67
2021/05/29 02:53:26;;;;;;;0.00;0.00;;;17.90;63.90;;;;;;5112610;28;20040;-67
2021/05/29 02:55:52;;;;;;;0.00;0.00;;;17.80;63.90;;;;;;5113273;28;20558;-67
2021/05/29 02:58:19;;;;;;;0.00;0.00;;;17.80;63.90;;;;;;5113417;28;20044;-67
2021/05/29 03:00:47;;;;;;;0.00;0.00;;;17.80;63.90;;;;;;5113324;28;20128;-67
2021/05/29 03:03:14;;;;;;;0.00;0.00;;;17.80;63.90;;;;;;5112872;28;20151;-67
2021/05/29 03:05:43;;;;;;;0.00;0.00;;;17.80;63.90;;;;;;5112595;28;20126;-67
2021/05/29 03:08:11;;;;;;;0.00;0.00;;;17.70;63.90;;;;;;5112643;28;20130;-67
2021/05/29 03:10:42;;;;;;;0.00;0.00;;;17.70;64.00;;;;;;5105979;28;20613;-67
2021/05/29 03:13:09;;;;;;;0.00;0.00;;;17.70;64.10;;;;;;5112557;28;20051;-67
2021/05/29 03:15:36;;;;;;;0.00;0.00;;;17.70;64.10;;;;;;5112633;28;20494;-67
2021/05/29 03:18:05;;;;;;;0.00;0.00;;;17.70;64.20;;;;;;5112936;28;20044;-67
2021/05/29 03:20:32;;;;;;;0.00;0.00;;;17.70;64.20;;;;;;5112928;28;20126;-67
2021/05/29 03:22:59;;;;;;;0.25;0.00;;;17.70;64.30;;;;;;5112444;28;20502;-67
2021/05/29 03:25:25;;;;;;;0.00;0.00;;;17.60;64.30;;;;;;5112793;28;20130;-67
2021/05/29 03:27:53;;;;;;;0.00;0.00;;;17.60;64.40;;;;;;5112695;28;20083;-67
2021/05/29 03:30:23;;;;;;;0.00;0.00;;;17.60;64.50;;;;;;5112453;28;20517;-67
2021/05/29 03:32:50;;;;;;;0.00;0.00;;;17.60;64.50;;;;;;5112581;28;20052;-67
2021/05/29 03:35:16;;;;;;;0.00;0.00;;;17.60;64.60;;;;;;5112746;28;20130;-67
2021/05/29 03:37:43;;;;;;;0.00;0.00;;;17.60;64.50;;;;;;5112166;28;20086;-67
2021/05/29 03:40:11;;;;;;;0.00;0.00;;;17.60;64.60;;;;;;5108353;28;20048;-67
2021/05/29 03:42:39;;;;;;;0.00;0.00;;;17.60;64.60;;;;;;5112499;28;20123;-67
2021/05/29 03:45:12;;;;;;;0.00;0.00;;;17.60;64.60;;;;;;5112196;28;20048;-67
2021/05/29 03:47:39;;;;;;;0.00;0.00;;;17.50;64.60;;;;;;5103161;28;20071;-67
2021/05/29 03:50:07;;;;;;;0.00;0.00;;;17.50;64.60;;;;;;5112411;28;20096;-67
2021/05/29 03:52:34;;;;;;;0.00;0.00;;;17.50;64.60;;;;;;5111944;28;20075;-67
2021/05/29 03:55:00;;;;;;;0.00;0.00;;;17.50;64.70;;;;;;5112424;28;20479;-67
2021/05/29 03:57:26;;;;;;;0.00;0.00;;;17.50;64.70;;;;;;5093121;28;20134;-67
2021/05/29 03:59:53;;;;;;;0.00;0.00;;;17.50;64.80;;;;;;5112283;28;20631;-67
2021/05/29 04:02:19;;;;;;;0.00;0.00;;;17.40;64.80;;;;;;5112037;28;20136;-67
2021/05/29 04:04:45;;;;;;;0.00;0.00;;;17.40;64.90;;;;;;5111815;28;20509;-67
2021/05/29 04:07:12;;;;;;;0.00;0.00;;;17.40;64.90;;;;;;5121156;27;20467;-67
2021/05/29 04:09:38;;;;;;;0.00;0.00;;;17.40;65.00;;;;;;5112992;27;20044;-67
2021/05/29 04:12:05;;;;;;;0.08;0.08;;;17.40;65.00;;;;;;5112046;28;20067;-67
2021/05/29 04:14:34;;;;;;;0.00;0.00;;;17.40;65.00;;;;;;5112200;28;20047;-67
2021/05/29 04:17:01;;;;;;;0.00;0.00;;;17.40;65.10;;;;;;5111942;28;20079;-67
2021/05/29 04:19:27;;;;;;;0.00;0.00;;;17.40;65.10;;;;;;5111571;28;20048;-67
2021/05/29 04:21:54;;;;;;;0.00;0.00;;;17.30;65.10;;;;;;5111949;28;20126;-66
2021/05/29 04:24:20;;;;;;;0.00;0.00;;;17.40;66.10;;;;;;5111797;28;20085;-67
2021/05/29 04:26:46;;;;;;;0.00;0.00;;;17.40;65.20;;;;;;5111794;28;20501;-67
2021/05/29 04:29:13;;;;;;;0.00;0.00;;;17.40;65.20;;;;;;5111972;28;20180;-67
2021/05/29 04:31:39;;;;;;;0.00;0.00;;;17.30;65.20;;;;;;5111702;28;20526;-67
2021/05/29 04:34:05;;;;;;;0.00;0.00;;;17.30;65.20;;;;;;5111818;28;20122;-67
2021/05/29 04:36:31;;;;;;;0.00;0.00;;;17.30;65.20;;;;;;5111605;28;20434;-67
2021/05/29 04:38:58;;;;;;;0.00;0.00;;;17.30;65.20;;;;;;5111481;28;20400;-66
2021/05/29 04:41:24;;;;;;;0.30;0.10;;;17.30;65.20;;;;;;5091805;28;20130;-67
2021/05/29 04:43:50;;;;;;;0.08;0.00;;;17.30;65.20;;;;;;5111350;28;20056;-67
2021/05/29 04:46:17;;;;;;;0.00;0.00;;;17.30;65.20;;;;;;5111549;28;20180;-66
2021/05/29 04:48:43;;;;;;;0.00;0.00;;;17.30;65.30;;;;;;5110941;28;20092;-67
2021/05/29 04:51:13;;;;;;;0.00;0.00;;;17.20;65.20;;;;;;5111442;28;20075;-67
2021/05/29 04:53:44;;;;;;;0.00;0.00;;;17.30;65.30;;;;;;5111477;28;20122;-67
2021/05/29 04:56:11;;;;;;;0.20;0.00;;;17.20;65.20;;;;;;5111805;28;20434;-67
2021/05/29 04:58:38;;;;;;;0.00;0.00;;;17.20;65.20;;;;;;5111755;28;20557;-67
2021/05/29 05:01:09;;;;;;;0.00;0.00;;;17.30;65.20;;;;;;5111412;28;20047;-67
2021/05/29 05:03:36;;;;;;;;;;;17.30;65.20;;;;;;5112022;28;20126;-67
2021/05/29 05:06:02;;;;;;;0.00;0.00;;;17.20;65.30;;;;;;5111139;28;20412;-67
2021/05/29 05:08:29;;;;;;;0.00;0.00;;;17.20;65.30;;;;;;5112930;28;20124;-67
2021/05/29 05:10:56;;;;;;;0.00;0.00;;;17.30;65.40;;;;;;5115410;28;20126;-67
2021/05/29 05:13:26;;;;;;;0.00;0.00;;;17.20;65.30;;;;;;5104871;28;20251;-67
2021/05/29 05:15:53;;;;;;;0.00;0.00;;;17.20;65.40;;;;;;5096026;28;20624;-67
2021/05/29 05:18:21;;;;;;;0.00;0.00;;;17.20;65.40;;;;;;5115231;28;20517;-67
2021/05/29 05:20:49;;;;;;;0.00;0.00;;;17.30;66.50;;;;;;5114152;28;20082;-68
2021/05/29 05:23:18;;;;;;;0.00;0.00;;;17.20;65.40;;;;;;5114417;28;20043;-67
2021/05/29 05:25:44;;;;;;;0.00;0.00;;;17.30;65.50;;;;;;5115107;28;20131;-67
2021/05/29 05:28:11;;;;;;;0.00;0.00;;;17.30;65.50;;;;;;5114669;28;20066;-68
2021/05/29 05:30:37;;;;;;;0.00;0.00;;;17.30;65.40;;;;;;5114667;28;20127;-67
2021/05/29 05:33:05;;;;;;;0.00;0.00;;;17.30;66.30;;;;;;5114748;28;20048;-67
2021/05/29 05:35:32;;;;;;;0.10;0.00;;;17.30;65.30;;;;;;5114806;28;20184;-67
2021/05/29 05:37:58;;;;;;;0.00;0.00;;;17.30;65.40;;;;;;5115315;28;20087;-67
2021/05/29 05:40:25;;;;;;;0.00;0.00;;;17.40;65.40;;;;;;5109581;28;20052;-67
2021/05/29 05:42:52;;;;;;;0.00;0.00;;;17.40;65.30;;;;;;5114617;28;20052;-67
2021/05/29 05:45:18;;;;;;;0.00;0.00;;;17.40;65.30;;;;;;5114890;28;20082;-67
2021/05/29 05:47:45;;;;;;;0.00;0.00;;;17.40;65.30;;;;;;5105387;28;20490;-67
2021/05/29 05:50:12;;;;;;;0.00;0.00;;;17.50;65.40;;;;;;5114717;28;20698;-67
2021/05/29 05:52:39;;;;;;;0.00;0.00;;;17.50;65.40;;;;;;5114602;28;20137;-67
2021/05/29 05:55:07;;;;;;;0.00;0.00;;;17.50;65.30;;;;;;5113964;28;20126;-67
2021/05/29 05:57:34;;;;;;;0.00;0.00;;;17.50;65.30;;;;;;5114628;28;20047;-67
2021/05/29 06:00:04;;;;;;;0.00;0.00;;;17.50;65.30;;;;;;5114299;28;20512;-67
2021/05/29 06:02:30;;;;;;;0.00;0.00;;;17.70;65.20;;;;;;5113706;28;20126;-67
2021/05/29 06:04:56;;;;;;;0.00;0.00;;;17.70;65.20;;;;;;5114274;28;20039;-67
2021/05/29 06:07:22;;;;;;;0.00;0.00;;;17.80;65.00;;;;;;5124843;27;20103;-67
2021/05/29 06:09:49;;;;;;;0.00;0.00;;;17.80;65.00;;;;;;5114130;28;20126;-67
2021/05/29 06:12:15;;;;;;;0.00;0.00;;;17.90;65.00;;;;;;5114085;28;20051;-67
2021/05/29 06:20:13;;;;;;;0.00;0.00;;;18.00;64.60;;;;;;5101291;28;20105;-67
2021/05/29 06:22:40;;;;;;;0.00;0.00;;;18.10;64.30;;;;;;5113519;28;20570;-67
2021/05/29 06:25:11;;;;;;;0.00;0.00;;;18.10;64.10;;;;;;5099282;28;20079;-68
2021/05/29 06:27:38;;;;;;;0.00;0.00;;;18.20;64.10;;;;;;5113858;28;20119;-68
2021/05/29 06:30:07;;;;;;;0.00;0.00;;;18.30;64.00;;;;;;5113753;28;20122;-67
2021/05/29 06:32:34;;;;;;;0.00;0.00;;;18.30;63.80;;;;;;5113274;28;20097;-68
2021/05/29 06:35:01;;;;;;;0.00;0.00;;;18.30;63.60;;;;;;5113745;28;20050;-68
2021/05/29 06:37:27;;;;;;;0.00;0.00;;;18.40;63.20;;;;;;5113161;28;20503;-70
2021/05/29 06:39:54;;;;;;;0.00;0.00;;;18.30;63.00;;;;;;5094640;28;20135;-67
2021/05/29 06:42:20;;;;;;;0.00;0.00;;;18.40;62.80;;;;;;5113350;28;20507;-67
2021/05/29 06:44:46;;;;;;;0.05;0.05;;;18.40;62.80;;;;;;5113454;28;20047;-68
2021/05/29 06:47:13;;;;;;;0.00;0.00;;;18.40;62.70;;;;;;5112854;28;20558;-68
2021/05/29 06:49:40;;;;;;;0.00;0.00;;;18.40;62.50;;;;;;5114537;27;20456;-68
2021/05/29 06:52:11;;;;;;;0.00;0.00;;;18.40;62.30;;;;;;5115100;27;20418;-67
2021/05/29 06:54:52;;;;;;;0.00;0.00;;;18.40;62.30;;;;;;5101562;27;20081;-67
2021/05/29 07:00:06;;;;;;;0.00;0.00;;;18.50;62.30;;;;;;5093942;27;20104;-68
2021/05/29 07:02:33;;;;;;;0.00;0.00;;;18.50;62.20;;;;;;5096267;27;20562;-68
2021/05/29 07:05:01;;;;;;;0.00;0.00;;;18.50;62.30;;;;;;5092490;28;20127;-68
2021/05/29 07:07:27;;;;;;;0.00;0.00;;;18.60;62.40;;;;;;5101070;27;20047;-68
2021/05/29 07:09:53;;;;;;;0.17;0.00;;;18.60;62.40;;;;;;5094274;27;20043;-68
2021/05/29 07:12:20;;;;;;;0.00;0.00;;;18.70;62.50;;;;;;5094836;27;20082;-68
2021/05/29 07:14:46;;;;;;;0.20;0.00;;;18.70;62.50;;;;;;5114998;27;20153;-68
2021/05/29 07:17:13;;;;;;;0.00;0.00;;;18.80;62.60;;;;;;5121287;27;20082;-68
2021/05/29 07:19:40;;;;;;;0.00;0.00;;;18.90;62.60;;;;;;5124649;27;20085;-68
2021/05/29 07:22:06;;;;;;;0.00;0.00;;;19.00;62.40;;;;;;5125592;27;20063;-68
2021/05/29 07:24:33;;;;;;;0.00;0.00;;;19.10;62.20;;;;;;5122531;27;20083;-68
2021/05/29 07:27:00;;;;;;;0.00;0.00;;;19.20;62.10;;;;;;5108638;27;20077;-68
2021/05/29 07:29:27;;;;;;;0.00;0.00;;;19.30;62.00;;;;;;5107320;27;20051;-68
2021/05/29 07:31:54;;;;;;;0.00;0.00;;;19.50;62.00;;;;;;5111478;27;20557;-68
2021/05/29 07:34:20;;;;;;;0.00;0.00;;;19.60;61.70;;;;;;5115000;27;20523;-68
2021/05/29 07:36:47;;;;;;;0.00;0.00;;;19.70;61.30;;;;;;5114472;27;20115;-69
2021/05/29 07:39:13;;;;;;;0.00;0.00;;;19.80;60.70;;;;;;5114943;27;20083;-68
2021/05/29 07:41:39;;;;;;;0.00;0.00;;;19.90;60.50;;;;;;5113250;27;20700;-69
2021/05/29 07:44:07;;;;;;;0.00;0.00;;;20.00;60.20;;;;;;5112546;27;20072;-68
2021/05/29 07:46:34;;;;;;;0.00;0.00;;;20.10;59.80;;;;;;5111422;27;20063;-68
2021/05/29 07:49:02;;;;;;;0.00;0.00;;;20.10;59.60;;;;;;5100184;27;20067;-68
2021/05/29 07:51:28;;;;;;;0.00;0.00;;;20.10;59.60;;;;;;5110286;27;20083;-68
2021/05/29 07:53:54;;;;;;;0.00;0.00;;;20.10;59.30;;;;;;5114423;27;20181;-68
2021/05/29 07:56:21;;;;;;;0.00;0.00;;;20.10;59.20;;;;;;5113719;27;20088;-68
2021/05/29 07:58:49;;;;;;;0.00;0.00;;;20.10;59.00;;;;;;5113096;27;20563;-68
2021/05/29 08:01:16;;;;;;;0.00;0.00;;;20.10;58.80;;;;;;5117006;27;20047;-68
2021/05/29 08:03:43;;;;;;;0.08;0.00;;;20.00;58.30;;;;;;5130768;27;20077;-68
2021/05/29 08:06:17;;;;;;;0.00;0.00;;;20.00;58.50;;;;;;5103290;27;20047;-68
2021/05/29 08:08:45;;;;;;;0.00;0.00;;;20.00;58.60;;;;;;5085922;28;20122;-68
2021/05/29 08:11:23;;;;;;;0.00;0.00;;;19.90;58.70;;;;;;5107956;27;20122;-68
2021/05/29 08:13:55;;;;;;;0.00;0.00;;;19.90;58.50;;;;;;5116969;27;20042;-68
2021/05/29 08:16:23;;;;;;;0.03;0.03;;;19.90;58.70;;;;;;5121760;27;20168;-68
2021/05/29 08:18:51;;;;;;;0.00;0.00;;;19.90;58.90;;;;;;5118026;27;20395;-68
2021/05/29 08:21:18;;;;;;;0.00;0.00;;;19.90;59.10;;;;;;5120209;28;20083;-68
2021/05/29 08:23:44;;;;;;;0.00;0.00;;;19.90;59.30;;;;;;5114214;28;20415;-71
2021/05/29 08:26:11;;;;;;;0.00;0.00;;;19.90;59.20;;;;;;5112602;28;20376;-68
2021/05/29 08:28:37;;;;;;;0.00;0.00;;;19.90;59.20;;;;;;5121226;28;20100;-67
2021/05/29 08:31:04;;;;;;;0.00;0.00;;;20.00;59.40;;;;;;5109101;28;20550;-67
2021/05/29 08:33:31;;;;;;;0.00;0.00;;;20.00;59.10;;;;;;5094560;28;20055;-67
2021/05/29 08:35:58;;;;;;;0.00;0.00;;;20.00;59.10;;;;;;5104420;28;20530;-67
2021/05/29 08:38:24;;;;;;;0.00;0.00;;;20.00;59.20;;;;;;5108490;28;20518;-67
2021/05/29 08:40:51;;;;;;;0.00;0.00;;;20.00;59.30;;;;;;5120401;28;20180;-67
2021/05/29 08:43:18;;;;;;;0.00;0.00;;;20.10;59.40;;;;;;5118568;27;20529;-67
2021/05/29 08:45:44;;;;;;;0.00;0.00;;;20.10;59.80;;;;;;5124596;27;20549;-67
2021/05/29 08:48:11;;;;;;;0.00;0.00;;;20.20;58.80;;;;;;5120475;27;20421;-67
2021/05/29 08:51:12;;;;;;;0.00;0.00;;;20.30;58.70;;;;;;5122641;27;20157;-67
2021/05/29 08:53:25;;;;;;;0.10;0.10;;;20.40;58.10;;;;;;5120396;27;20126;-67
2021/05/29 08:55:51;;;;;;;0.00;0.00;;;20.50;56.60;;;;;;5123683;27;20125;-67
2021/05/29 08:58:17;;;;;;;0.00;0.00;;;20.60;56.90;;;;;;5121093;27;20491;-67
2021/05/29 09:00:44;;;;;;;0.00;0.00;;;20.70;57.30;;;;;;5121846;27;20044;-67
2021/05/29 09:03:14;;;;;;;0.05;0.05;;;20.90;57.30;;;;;;5123337;27;20043;-67
2021/05/29 09:05:51;;;;;;;0.00;0.00;;;21.10;56.70;;;;;;5120306;27;20048;-67
2021/05/29 09:08:21;;;;;;;0.00;0.00;;;21.10;55.90;;;;;;5122786;27;20044;-67
2021/05/29 09:10:50;;;;;;;0.00;0.00;;;21.10;55.50;;;;;;5119774;27;20414;-67
2021/05/29 09:13:18;;;;;;;0.00;0.00;;;21.10;54.70;;;;;;5124033;27;20039;-67
2021/05/29 09:16:06;;;;;;;0.00;0.00;;;21.10;55.00;;;;;;5118773;27;20180;-67
2021/05/29 09:18:38;;;;;;;0.05;0.05;;;21.20;55.10;;;;;;5122496;27;20569;-67
2021/05/29 09:21:31;;;;;;;0.20;0.20;;;21.20;54.80;;;;;;5112306;27;20126;-67
2021/05/29 09:24:18;;;;;;;0.40;0.40;;;21.20;54.00;;;;;;5119969;27;20180;-67
2021/05/29 09:26:46;;;;;;;0.38;0.38;;;21.20;53.70;;;;;;5123012;27;20035;-67
2021/05/29 09:29:28;;;;;;;0.40;0.40;;;21.20;54.20;;;;;;5119901;27;20043;-67
2021/05/29 09:31:58;;;;;;;0.20;0.20;;;21.20;54.50;;;;;;5118699;27;20519;-67
2021/05/29 09:34:27;;;;;;;0.10;0.10;;;21.30;54.30;;;;;;5114530;28;20688;-67
2021/05/29 09:37:02;;;;;;;0.00;0.00;;;21.40;54.50;;;;;;5114859;28;20150;-67
2021/05/29 09:39:31;;;;;;;0.00;0.00;;;21.50;54.60;;;;;;5114667;28;20044;-67
2021/05/29 09:41:59;;;;;;;0.00;0.00;;;21.70;54.00;;;;;;5114569;28;20051;-67
2021/05/29 09:44:30;;;;;;;0.00;0.00;;;21.80;53.60;;;;;;5114526;28;20130;-67
2021/05/29 09:46:58;;;;;;;0.00;0.00;;;21.90;53.40;;;;;;5114627;28;20047;-67
2021/05/29 09:49:40;;;;;;;0.00;0.00;;;22.00;52.20;;;;;;5100770;28;20122;-67
2021/05/29 09:52:28;;;;;;;0.00;0.00;;;22.00;50.70;;;;;;5114593;28;20055;-67
2021/05/29 09:55:01;;;;;;;0.70;0.70;;;21.90;50.00;;;;;;5113420;28;20036;-67
2021/05/29 09:57:28;;;;;;;0.40;0.40;;;21.90;50.60;;;;;;5114378;28;20062;-67
2021/05/29 10:00:05;;;;;;;0.13;0.13;;;21.90;49.40;;;;;;5114655;28;20550;-67
2021/05/29 10:02:31;;;;;;;0.00;0.00;;;21.80;49.80;;;;;;5114458;28;20043;-67
2021/05/29 10:04:58;;;;;;;0.00;0.00;;;21.80;50.40;;;;;;5114480;28;20127;-67
2021/05/29 10:07:38;;;;;;;0.10;0.00;;;21.90;50.00;;;;;;5113774;28;20087;-67
2021/05/29 10:10:05;;;;;;;;;;;22.00;50.10;;;;;;5114535;28;20546;-67
2021/05/29 10:12:32;;;;;;;0.00;0.00;;;22.00;49.90;;;;;;5114006;28;20002;-67
2021/05/29 10:14:58;;;;;;;0.00;0.00;;;22.10;50.10;;;;;;5111154;28;20119;-67
2021/05/29 10:17:25;;;;;;;0.00;0.00;;;22.10;49.50;;;;;;5114217;28;20126;-67
2021/05/29 10:19:52;;;;;;;0.00;0.00;;;22.10;49.60;;;;;;5114338;28;20079;-67
2021/05/29 10:22:19;;;;;;;0.00;0.00;;;22.10;50.30;;;;;;5113951;28;20047;-67
2021/05/29 10:24:47;;;;;;;0.10;0.10;;;22.20;51.90;;;;;;5113863;28;20126;-67
2021/05/29 10:27:19;;;;;;;0.10;0.10;;;22.30;51.40;;;;;;5113811;28;20139;-67
2021/05/29 10:29:46;;;;;;;0.17;0.17;;;22.40;50.70;;;;;;5113676;28;20131;-67
2021/05/29 10:32:18;;;;;;;0.10;0.10;;;22.60;50.80;;;;;;5113165;28;20570;-67
2021/05/29 10:34:54;;;;;;;0.70;0.70;;;22.90;51.50;;;;;;5114261;28;20055;-67
2021/05/29 10:37:41;;;;;;;0.30;0.30;;;23.10;50.10;;;;;;5113615;28;20044;-67
2021/05/29 10:40:17;;;;;;;0.00;0.00;;;23.40;48.50;;;;;;5095050;28;20054;-67
2021/05/29 10:42:44;;;;;;;1.20;1.20;;;23.40;46.20;;;;;;5087566;28;20036;-67
2021/05/29 10:45:19;;;;;;;0.75;0.60;;;23.50;46.60;;;;;;5091964;28;20051;-67
2021/05/29 10:48:13;;;;;;;0.10;0.10;;;23.50;47.10;;;;;;5095243;28;20036;-67
2021/05/29 10:53:39;;;;;;;0.10;0.10;;;23.70;46.00;;;;;;5113427;28;20122;-67
2021/05/29 10:56:20;;;;;;;0.00;0.00;;;23.70;45.80;;;;;;5113013;28;20421;-67
2021/05/29 10:59:09;;;;;;;0.10;0.10;;;23.70;46.00;;;;;;5113055;28;20463;-67
2021/05/29 11:01:36;;;;;;;0.00;0.00;;;23.60;44.70;;;;;;5090060;28;20112;-67
2021/05/29 11:04:15;;;;;;;0.30;0.30;;;23.40;45.50;;;;;;5094403;28;20061;-67
2021/05/29 11:06:47;;;;;;;0.10;0.10;;;23.40;46.10;;;;;;5131380;27;20047;-68
2021/05/29 11:09:14;;;;;;;0.10;0.10;;;23.30;45.40;;;;;;5118913;27;20134;-67
2021/05/29 11:14:24;;;;;;;0.10;0.10;;;23.20;45.10;;;;;;5112453;28;20173;-67
2021/05/29 11:16:53;;;;;;;0.10;0.10;;;23.20;45.70;;;;;;5112218;28;20051;-67
2021/05/29 11:19:25;;;;;;;0.00;0.00;;;23.30;46.40;;;;;;5112818;28;20178;-67
2021/05/29 11:22:06;;;;;;;0.30;0.10;;;23.30;43.70;;;;;;5112802;28;20055;-67
2021/05/29 11:24:41;;;;;;;0.00;0.00;;;23.30;43.90;;;;;;5112865;28;20047;-67
2021/05/29 11:27:13;;;;;;;0.10;0.00;;;23.10;42.20;;;;;;5112553;28;20054;-67
2021/05/29 11:29:58;;;;;;;0.10;0.00;;;22.80;42.80;;;;;;5112508;28;20089;-67
2021/05/29 11:35:33;;;;;;;0.17;0.10;;;22.60;43.80;;;;;;5099256;27;20056;-68
2021/05/29 11:38:04;;;;;;;0.00;0.00;;;22.60;43.80;;;;;;5121807;27;20176;-70
2021/05/29 11:40:50;;;;;;;0.00;0.00;;;22.60;44.60;;;;;;5126739;27;20454;-69
2021/05/29 11:43:20;;;;;;;0.00;0.00;;;22.80;44.20;;;;;;5128704;27;20126;-70
2021/05/29 11:45:56;;;;;;;0.00;0.00;;;22.80;44.50;;;;;;5120182;27;20043;-71
2021/05/29 11:48:55;;;;;;;0.00;0.00;;;22.90;43.90;;;;;;5117092;27;20043;-71
2021/05/29 11:51:23;;;;;;;0.00;0.00;;;23.00;45.00;;;;;;5127072;27;20043;-72
2021/05/29 11:53:53;;;;;;;0.00;0.00;;;23.10;45.50;;;;;;5116614;27;20126;-68
2021/05/29 11:56:35;;;;;;;0.10;0.10;;;23.20;44.50;;;;;;5111484;27;20505;-70
2021/05/29 11:59:05;;;;;;;0.00;0.00;;;23.30;43.00;;;;;;5111985;28;20119;-68
2021/05/29 12:01:34;;;;;;;0.00;0.00;;;23.30;44.10;;;;;;5110179;27;20055;-68
2021/05/29 12:04:03;;;;;;;0.00;0.00;;;23.40;45.40;;;;;;5106037;28;20107;-68
2021/05/29 12:06:56;;;;;;;0.10;0.10;;;23.50;45.30;;;;;;5106355;27;20143;-68
2021/05/29 12:09:24;;;;;;;0.10;0.10;;;23.40;45.60;;;;;;5108646;28;20566;-68
2021/05/29 12:11:56;;;;;;;0.00;0.00;;;23.50;46.10;;;;;;5097863;27;20435;-67
2021/05/29 12:14:40;;;;;;;0.10;0.10;;;23.50;46.20;;;;;;5100052;28;20116;-68
2021/05/29 12:17:06;;;;;;;0.00;0.00;;;23.50;45.00;;;;;;5108836;28;20051;-67
2021/05/29 12:19:54;;;;;;;0.65;0.65;;;23.50;45.10;;;;;;5106593;28;20483;-68
2021/05/29 12:22:29;;;;;;;0.17;0.17;;;23.50;44.70;;;;;;5112188;28;20079;-69
2021/05/29 12:25:02;;;;;;;0.10;0.10;;;23.60;45.70;;;;;;5121051;28;20079;-68
2021/05/29 12:27:34;;;;;;;0.00;0.00;;;23.60;46.00;;;;;;5095984;28;20399;-67
2021/05/29 12:30:07;;;;;;;0.03;0.03;;;23.60;46.00;;;;;;5115015;28;20118;-68
2021/05/29 12:32:40;;;;;;;0.00;0.00;;;23.60;46.60;;;;;;5120200;28;20485;-67
2021/05/29 12:35:11;;;;;;;0.00;0.00;;;23.60;47.20;;;;;;5115274;28;20070;-67
2021/05/29 12:37:38;;;;;;;0.10;0.10;;;23.60;46.00;;;;;;5131846;28;20043;-67
2021/05/29 12:40:14;;;;;;;0.08;0.08;;;23.50;46.20;;;;;;5130507;28;20134;-66
2021/05/29 12:42:40;;;;;;;0.00;0.00;;;23.50;46.50;;;;;;5106109;28;20050;-67
2021/05/29 12:45:18;;;;;;;0.00;0.00;;;23.50;46.80;;;;;;5122885;28;20056;-66
2021/05/29 12:48:01;;;;;;;0.00;0.00;;;23.50;47.20;;;;;;5113527;28;20036;-67
2021/05/29 12:50:37;;;;;;;0.00;0.00;;;23.60;47.80;;;;;;5128210;28;20184;-67
2021/05/29 12:53:14;;;;;;;0.00;0.00;;;23.70;48.10;;;;;;5129220;28;20047;-67
2021/05/29 12:55:42;;;;;;;0.10;0.10;;;23.70;48.70;;;;;;5128187;28;20043;-67
2021/05/29 12:58:15;;;;;;;0.00;0.00;;;23.70;48.60;;;;;;5111406;28;20082;-67
2021/05/29 13:01:03;;;;;;;0.03;0.00;;;23.70;48.30;;;;;;5128475;28;20133;-67
2021/05/29 13:09:22;;;;;;;0.28;0.00;;;23.60;49.50;;;;;;5086610;28;20044;-66
2021/05/29 13:11:48;;;;;;;0.00;0.00;;;23.60;49.90;;;;;;5087848;28;20487;-67
2021/05/29 13:14:29;;;;;;;0.10;0.05;;;23.60;50.40;;;;;;5086699;28;20657;-66
2021/05/29 13:16:57;;;;;;;0.00;0.00;;;23.60;50.90;;;;;;5080263;28;20518;-66
2021/05/29 13:19:29;;;;;;;0.05;0.05;;;23.60;50.90;;;;;;5082636;28;20507;-66
2021/05/29 13:22:00;;;;;;;0.10;0.10;;;23.60;51.00;;;;;;5087971;28;20660;-67